Time;durP1;ratioP1;P1;durP2;ratioP2;P2;SDS_P1;SDS_P2;PMS_P1;PMS_P2;Temp;Humidity;BMP_temperature;BMP_pressure;BME280_temperature;BME280_humidity;BME280_pressure;Samples;Min_cycle;Max_cycle;Signal;HPM_P1;HPM_P2
2023/09/01 00:02:24;;;;;;;5.35;2.22;;;;;;;14.68;74.87;101278.66;7398476;19;20022;-63
2023/09/01 00:04:51;;;;;;;4.00;2.03;;;;;;;14.72;74.71;101280.09;7396045;19;20022;-63
2023/09/01 00:07:19;;;;;;;7.30;2.08;;;;;;;14.65;74.65;101273.56;7396875;19;20030;-63
2023/09/01 00:09:46;;;;;;;5.72;2.22;;;;;;;14.67;74.41;101274.28;7398540;19;20029;-63
2023/09/01 00:12:13;;;;;;;5.50;2.25;;;;;;;14.50;75.03;101269.50;7400017;19;20374;-63
2023/09/01 00:14:41;;;;;;;7.40;2.40;;;;;;;14.62;74.82;101268.50;7395516;19;20018;-64
2023/09/01 00:17:08;;;;;;;9.30;2.70;;;;;;;14.60;74.68;101262.44;7398694;19;20041;-64
2023/09/01 00:19:36;;;;;;;6.55;2.33;;;;;;;14.58;75.13;101275.06;7396910;19;20403;-64
2023/09/01 00:22:03;;;;;;;5.45;1.90;;;;;;;14.69;74.73;101268.81;7394937;19;20082;-64
2023/09/01 00:24:32;;;;;;;9.95;2.65;;;;;;;14.64;74.78;101274.53;7393746;19;20010;-64
2023/09/01 00:27:00;;;;;;;6.57;2.35;;;;;;;14.58;74.90;101273.25;7394942;19;20491;-64
2023/09/01 00:29:28;;;;;;;6.47;2.42;;;;;;;14.50;75.22;101272.16;7394137;19;20085;-64
2023/09/01 00:31:56;;;;;;;9.35;2.55;;;;;;;14.49;75.24;101273.09;7391134;19;20055;-65
2023/09/01 00:34:23;;;;;;;6.80;2.60;;;;;;;14.52;75.12;101270.22;7392479;19;20039;-63
2023/09/01 00:36:51;;;;;;;6.90;2.38;;;;;;;14.47;75.10;101280.41;7396883;19;20030;-63
2023/09/01 00:39:19;;;;;;;7.55;2.35;;;;;;;14.44;75.33;101269.97;7396509;19;20054;-64
2023/09/01 00:41:46;;;;;;;8.15;2.17;;;;;;;14.57;74.88;101268.03;7396833;19;20018;-63
2023/09/01 00:44:14;;;;;;;8.02;2.47;;;;;;;14.56;74.70;101274.34;7391973;19;20371;-63
2023/09/01 00:46:46;;;;;;;6.65;2.50;;;;;;;14.53;74.67;101271.91;7396191;19;20490;-63
2023/09/01 00:49:17;;;;;;;6.72;2.42;;;;;;;14.49;75.03;101278.44;7395916;19;20015;-63
2023/09/01 00:51:47;;;;;;;6.63;2.53;;;;;;;14.49;75.05;101281.09;7396247;19;20018;-63
2023/09/01 00:54:15;;;;;;;6.35;2.40;;;;;;;14.49;75.00;101275.78;7393293;19;20025;-63
2023/09/01 00:56:43;;;;;;;8.93;2.60;;;;;;;14.45;74.95;101277.00;7395435;19;20018;-63
2023/09/01 00:59:11;;;;;;;6.88;2.70;;;;;;;14.47;74.95;101275.91;7396213;19;20025;-63
2023/09/01 01:01:42;;;;;;;6.30;2.20;;;;;;;14.53;74.73;101274.56;7394409;19;20022;-63
2023/09/01 01:04:10;;;;;;;5.70;2.40;;;;;;;14.29;75.55;101274.75;7393209;19;20014;-63
2023/09/01 01:07:08;;;;;;;7.10;2.53;;;;;;;14.31;75.72;101276.31;7395301;19;20022;-63
2023/09/01 01:10:13;;;;;;;8.63;2.90;;;;;;;14.33;75.15;101277.03;7393902;19;20022;-65
2023/09/01 01:12:55;;;;;;;7.13;2.42;;;;;;;14.29;75.37;101272.91;7393270;19;20021;-60
2023/09/01 01:15:25;;;;;;;8.05;2.25;;;;;;;14.32;75.08;101275.34;7392743;19;20022;-60
2023/09/01 01:17:57;;;;;;;4.90;2.30;;;;;;;14.35;74.93;101268.94;7394229;19;20089;-59
2023/09/01 01:20:33;;;;;;;7.30;2.50;;;;;;;14.33;74.90;101274.34;7394260;19;20037;-61
2023/09/01 01:23:16;;;;;;;6.22;2.70;;;;;;;14.25;75.07;101273.28;7392693;19;20078;-60
2023/09/01 01:25:49;;;;;;;8.73;2.55;;;;;;;14.15;75.39;101273.16;7393592;19;20438;-61
2023/09/01 01:28:17;;;;;;;7.47;2.60;;;;;;;14.12;75.88;101270.78;7394078;19;20023;-60
2023/09/01 01:30:47;;;;;;;6.97;2.70;;;;;;;14.18;75.38;101272.94;7391938;19;20032;-60
2023/09/01 01:33:45;;;;;;;7.05;2.70;;;;;;;14.18;75.20;101270.28;7390525;19;20045;-60
2023/09/01 01:36:19;;;;;;;5.32;2.28;;;;;;;14.02;75.80;101270.66;7389932;19;20462;-61
2023/09/01 01:39:01;;;;;;;8.80;2.75;;;;;;;14.08;75.68;101274.63;7393277;19;20033;-61
2023/09/01 01:41:48;;;;;;;6.13;2.70;;;;;;;14.12;75.32;101276.94;7393157;19;20076;-61
2023/09/01 01:44:20;;;;;;;7.07;2.58;;;;;;;14.23;74.93;101277.88;7390969;19;20070;-61
2023/09/01 01:46:50;;;;;;;7.68;2.60;;;;;;;14.11;75.17;101277.06;7393019;19;20363;-60
2023/09/01 01:49:18;;;;;;;5.95;2.65;;;;;;;14.15;75.12;101287.34;7393378;19;20546;-61
2023/09/01 01:51:46;;;;;;;8.73;2.75;;;;;;;14.01;75.77;101284.94;7391526;19;20090;-61
2023/09/01 01:54:13;;;;;;;5.90;2.55;;;;;;;14.10;75.33;101284.19;7389295;19;20029;-61
2023/09/01 01:56:41;;;;;;;6.78;2.88;;;;;;;14.18;75.17;101288.06;7388367;19;20049;-60
2023/09/01 01:59:08;;;;;;;6.30;2.58;;;;;;;14.15;75.08;101286.50;7389705;19;20011;-61
2023/09/01 02:01:35;;;;;;;7.25;2.42;;;;;;;14.03;75.33;101288.31;7392742;19;20029;-61
2023/09/01 02:04:05;;;;;;;5.88;2.25;;;;;;;14.05;75.46;101288.22;7390313;19;20019;-61
2023/09/01 02:06:32;;;;;;;5.50;2.55;;;;;;;14.03;75.60;101290.97;7391565;19;20475;-60
2023/09/01 02:09:00;;;;;;;7.32;3.05;;;;;;;14.11;75.21;101291.22;7391062;19;20058;-61
2023/09/01 02:11:27;;;;;;;6.85;2.60;;;;;;;14.13;74.99;101293.78;7393965;19;20019;-60
2023/09/01 02:13:56;;;;;;;6.88;2.80;;;;;;;14.04;75.13;101299.81;7391368;19;20014;-59
2023/09/01 02:16:24;;;;;;;7.45;2.80;;;;;;;14.02;75.45;101288.47;7391447;19;20022;-61
2023/09/01 02:18:52;;;;;;;6.55;3.03;;;;;;;14.02;75.47;101291.97;7392901;19;20029;-61
2023/09/01 02:21:20;;;;;;;6.60;3.00;;;;;;;13.97;74.99;101288.84;7394487;19;20015;-61
2023/09/01 02:23:48;;;;;;;9.57;2.95;;;;;;;13.84;75.97;101288.09;7390384;19;20022;-61
2023/09/01 02:26:19;;;;;;;6.82;2.30;;;;;;;13.99;75.52;101300.19;7390247;19;20018;-61
2023/09/01 02:28:47;;;;;;;6.50;2.72;;;;;;;13.86;75.78;101292.34;7391608;19;20022;-61
2023/09/01 02:31:15;;;;;;;7.22;2.80;;;;;;;13.78;76.25;101294.75;7391796;19;20043;-61
2023/09/01 02:33:43;;;;;;;8.95;2.95;;;;;;;13.69;76.15;101303.44;7387876;19;20422;-59
2023/09/01 02:36:35;;;;;;;6.97;2.80;;;;;;;13.68;76.20;101307.09;7390199;19;20018;-59
2023/09/01 02:39:06;;;;;;;5.80;2.80;;;;;;;13.65;76.73;101305.50;7391686;19;20375;-60
2023/09/01 02:41:34;;;;;;;8.63;2.78;;;;;;;13.75;76.09;101310.13;7391623;19;20022;-60
2023/09/01 02:44:01;;;;;;;6.88;3.25;;;;;;;13.74;76.19;101305.78;7387721;19;20014;-59
2023/09/01 02:46:29;;;;;;;7.18;3.33;;;;;;;13.71;75.82;101308.66;7391083;19;20018;-63
2023/09/01 02:48:56;;;;;;;7.65;3.13;;;;;;;13.73;75.88;101304.06;7389628;19;20078;-59
2023/09/01 02:51:24;;;;;;;7.28;3.13;;;;;;;13.71;75.76;101303.34;7391708;19;20366;-59
2023/09/01 02:53:51;;;;;;;7.93;3.28;;;;;;;13.72;75.94;101294.38;7389856;19;20078;-59
2023/09/01 02:56:19;;;;;;;9.02;3.33;;;;;;;13.71;75.90;101303.34;7391194;19;20015;-60
2023/09/01 02:58:46;;;;;;;7.43;3.13;;;;;;;13.79;75.43;101296.44;7390794;19;20010;-59
2023/09/01 03:01:13;;;;;;;8.70;3.30;;;;;;;13.75;75.50;101295.00;7391438;19;20026;-59
2023/09/01 03:03:42;;;;;;;8.23;3.15;;;;;;;13.56;76.05;101294.75;7389550;19;20026;-59
2023/09/01 03:06:10;;;;;;;8.65;3.10;;;;;;;13.43;76.79;101300.13;7391793;19;20019;-59
2023/09/01 03:08:38;;;;;;;8.18;3.30;;;;;;;13.37;76.82;101295.31;7391101;19;20045;-59
2023/09/01 03:11:05;;;;;;;9.13;3.40;;;;;;;13.36;77.23;101288.31;7389760;19;20077;-59
2023/09/01 03:13:33;;;;;;;7.65;3.15;;;;;;;13.38;77.08;101302.31;7389076;19;20015;-60
2023/09/01 03:16:03;;;;;;;10.43;4.45;;;;;;;13.40;77.00;101303.91;7390606;19;20022;-59
2023/09/01 03:18:30;;;;;;;13.20;6.47;;;;;;;13.35;76.75;101306.03;7389329;19;20317;-59
2023/09/01 03:21:09;;;;;;;11.02;6.15;;;;;;;13.34;77.18;101303.53;7388810;19;20070;-60
2023/09/01 03:23:36;;;;;;;11.52;5.65;;;;;;;13.34;76.84;101306.19;7388750;19;20434;-59
2023/09/01 03:26:07;;;;;;;11.80;5.18;;;;;;;13.37;76.78;101303.28;7389971;19;20010;-60
2023/09/01 03:28:34;;;;;;;9.05;4.10;;;;;;;13.28;76.99;101304.84;7390335;19;20494;-60
2023/09/01 03:31:20;;;;;;;10.57;4.15;;;;;;;13.38;76.82;101304.97;7385088;19;20026;-60
2023/09/01 03:34:10;;;;;;;7.97;3.78;;;;;;;13.39;76.46;101304.88;7384605;19;20511;-60
2023/09/01 03:36:57;;;;;;;7.78;3.50;;;;;;;13.32;76.64;101310.78;7389923;19;20086;-60
2023/09/01 03:39:25;;;;;;;5.18;3.22;;;;;;;13.36;76.49;101309.59;7397091;19;20564;-59
2023/09/01 03:41:52;;;;;;;8.63;3.45;;;;;;;13.33;76.71;101310.66;7395257;19;20041;-60
2023/09/01 03:44:19;;;;;;;7.90;3.45;;;;;;;13.34;76.89;101314.16;7394396;19;20025;-60
2023/09/01 03:46:47;;;;;;;7.45;3.17;;;;;;;13.35;76.50;101305.19;7397845;19;20013;-61
2023/09/01 03:49:14;;;;;;;7.32;3.08;;;;;;;13.35;76.38;101303.38;7397528;19;20486;-60
2023/09/01 03:51:42;;;;;;;7.50;3.67;;;;;;;13.28;76.53;101299.53;7394634;19;20018;-60
2023/09/01 03:54:09;;;;;;;6.72;3.63;;;;;;;13.24;76.63;101306.06;7394627;19;20014;-61
2023/09/01 03:56:36;;;;;;;9.00;4.15;;;;;;;13.08;76.89;101300.97;7394955;19;20345;-60
2023/09/01 03:59:04;;;;;;;8.07;3.63;;;;;;;12.95;77.69;101307.34;7395094;19;20039;-60
2023/09/01 04:01:32;;;;;;;7.55;3.80;;;;;;;12.96;77.65;101312.56;7396816;19;20032;-62
2023/09/01 04:04:01;;;;;;;9.57;3.58;;;;;;;13.21;76.61;101308.91;7393937;19;20777;-60
2023/09/01 04:06:29;;;;;;;9.20;4.63;;;;;;;13.29;76.49;101309.19;7396934;19;20018;-60
2023/09/01 04:08:56;;;;;;;7.35;3.65;;;;;;;13.27;76.35;101303.13;7396862;19;20373;-60
2023/09/01 04:11:24;;;;;;;9.95;3.85;;;;;;;13.26;76.49;101306.75;7396344;19;20022;-61
2023/09/01 04:13:51;;;;;;;6.78;3.75;;;;;;;13.24;76.47;101311.38;7393949;19;20391;-61
2023/09/01 04:16:18;;;;;;;9.35;4.20;;;;;;;13.31;76.39;101306.41;7392951;19;20023;-60
2023/09/01 04:18:47;;;;;;;8.65;4.35;;;;;;;13.38;76.14;101302.31;7395816;19;20021;-61
2023/09/01 04:21:15;;;;;;;7.40;4.05;;;;;;;13.42;75.86;101298.44;7394915;19;20022;-60
2023/09/01 04:23:42;;;;;;;7.90;4.03;;;;;;;13.28;76.30;101296.88;7394097;19;20035;-60
2023/09/01 04:26:11;;;;;;;7.55;4.07;;;;;;;13.32;76.47;101302.81;7395760;19;20029;-61
2023/09/01 04:28:39;;;;;;;10.73;4.68;;;;;;;13.27;76.17;101303.13;7396019;19;20045;-60
2023/09/01 04:31:29;;;;;;;8.10;4.15;;;;;;;13.22;76.54;101307.94;7395630;19;20045;-60
2023/09/01 04:33:57;;;;;;;8.90;4.22;;;;;;;13.22;76.74;101309.75;7393816;19;20019;-60
2023/09/01 04:36:27;;;;;;;8.55;4.00;;;;;;;13.13;77.07;101313.97;7394801;19;20490;-61
2023/09/01 04:39:14;;;;;;;8.30;4.30;;;;;;;13.13;77.23;101317.47;7394398;19;20343;-59
2023/09/01 04:41:43;;;;;;;9.02;3.95;;;;;;;13.29;76.52;101319.00;7393700;19;20027;-60
2023/09/01 04:44:12;;;;;;;7.53;4.30;;;;;;;13.34;76.26;101306.19;7391734;19;20467;-61
2023/09/01 04:46:39;;;;;;;11.10;4.78;;;;;;;13.44;76.00;101317.81;7394282;19;20018;-61
2023/09/01 04:49:06;;;;;;;9.07;4.10;;;;;;;13.42;75.83;101314.41;7393400;19;20026;-61
2023/09/01 04:51:34;;;;;;;7.78;3.75;;;;;;;13.46;76.04;101317.69;7393392;19;20018;-59
2023/09/01 04:54:02;;;;;;;9.73;4.13;;;;;;;13.41;75.75;101329.53;7392535;19;20015;-59
2023/09/01 04:56:30;;;;;;;10.07;4.20;;;;;;;13.46;75.72;101333.66;7391671;19;20014;-60
2023/09/01 04:58:58;;;;;;;11.10;4.55;;;;;;;13.51;75.33;101331.50;7394896;19;20502;-59
2023/09/01 05:01:25;;;;;;;8.52;4.40;;;;;;;13.50;75.75;101332.44;7394748;19;20082;-59
2023/09/01 05:03:53;;;;;;;11.75;4.70;;;;;;;13.46;75.80;101323.84;7393056;19;20022;-60
2023/09/01 05:06:20;;;;;;;11.70;4.78;;;;;;;13.46;75.67;101331.00;7394509;19;20022;-60
2023/09/01 05:08:48;;;;;;;9.98;5.00;;;;;;;13.47;75.45;101335.34;7392814;19;20007;-60
2023/09/01 05:11:15;;;;;;;8.82;4.32;;;;;;;13.51;75.54;101340.34;7394049;19;20029;-60
2023/09/01 05:13:43;;;;;;;9.32;4.07;;;;;;;13.46;75.84;101337.16;7392742;19;20030;-60
2023/09/01 05:16:11;;;;;;;10.95;4.57;;;;;;;13.43;76.05;101329.41;7392496;19;20021;-60
2023/09/01 05:18:38;;;;;;;9.90;4.60;;;;;;;13.53;75.89;101334.88;7392735;19;20018;-60
2023/09/01 05:21:05;;;;;;;9.27;4.43;;;;;;;13.51;75.93;101335.00;7394224;19;20356;-60
2023/09/01 05:23:34;;;;;;;9.15;4.45;;;;;;;13.67;75.49;101347.13;7392431;19;20023;-60
2023/09/01 05:26:02;;;;;;;10.60;4.32;;;;;;;13.63;75.17;101347.38;7394423;19;20035;-59
2023/09/01 05:28:29;;;;;;;9.88;4.70;;;;;;;13.57;75.80;101349.66;7391953;19;20029;-61
2023/09/01 05:30:57;;;;;;;10.43;4.50;;;;;;;13.53;75.80;101349.03;7393936;19;20021;-60
2023/09/01 05:33:25;;;;;;;10.20;4.65;;;;;;;13.58;75.99;101354.00;7392249;19;20019;-60
2023/09/01 05:35:52;;;;;;;9.73;4.50;;;;;;;13.61;75.88;101351.09;7391398;19;20036;-61
2023/09/01 05:38:19;;;;;;;10.25;4.43;;;;;;;13.56;76.07;101350.63;7391010;19;20026;-61
2023/09/01 05:41:00;;;;;;;11.35;5.28;;;;;;;13.52;76.37;101351.81;7393878;19;20010;-58
2023/09/01 05:43:29;;;;;;;9.18;4.53;;;;;;;13.52;76.25;101357.16;7390412;19;20039;-58
2023/09/01 05:45:56;;;;;;;11.45;4.68;;;;;;;13.52;76.19;101358.00;7393215;19;20014;-59
2023/09/01 05:48:25;;;;;;;11.30;4.53;;;;;;;13.58;76.49;101361.97;7392046;19;20029;-59
2023/09/01 05:50:52;;;;;;;9.80;4.78;;;;;;;13.59;76.22;101369.03;7393818;19;20018;-60
2023/09/01 05:53:21;;;;;;;9.23;4.38;;;;;;;13.67;76.18;101369.28;7392589;19;20038;-60
2023/09/01 05:55:48;;;;;;;9.30;5.13;;;;;;;13.62;76.25;101371.41;7393887;19;20010;-60
2023/09/01 05:58:16;;;;;;;10.50;4.53;;;;;;;13.64;76.11;101366.84;7390834;19;20023;-60
2023/09/01 06:00:43;;;;;;;11.30;5.38;;;;;;;13.75;75.78;101368.69;7392697;19;20023;-61
2023/09/01 06:03:11;;;;;;;10.20;5.07;;;;;;;13.74;75.93;101370.50;7391230;19;20033;-61
2023/09/01 06:05:39;;;;;;;11.43;5.10;;;;;;;13.85;75.73;101369.66;7392401;19;20518;-59
2023/09/01 06:08:06;;;;;;;13.20;5.70;;;;;;;13.82;75.91;101372.56;7392876;19;20022;-60
2023/09/01 06:10:33;;;;;;;15.32;4.95;;;;;;;13.91;75.81;101377.16;7392193;19;20044;-61
2023/09/01 06:13:01;;;;;;;11.45;5.10;;;;;;;13.84;76.11;101371.47;7390151;19;20090;-60
2023/09/01 06:15:29;;;;;;;14.35;5.47;;;;;;;13.94;75.93;101374.28;7392124;19;20837;-60
2023/09/01 06:17:56;;;;;;;11.63;4.72;;;;;;;14.08;75.63;101381.16;7391546;19;20042;-61
2023/09/01 06:20:24;;;;;;;11.30;5.40;;;;;;;14.12;75.36;101383.50;7392984;19;20019;-59
2023/09/01 06:22:53;;;;;;;11.93;5.25;;;;;;;14.18;75.59;101389.28;7392571;19;20022;-60
2023/09/01 06:25:21;;;;;;;13.40;5.18;;;;;;;14.19;75.74;101393.66;7392092;19;20031;-62
2023/09/01 06:27:49;;;;;;;14.88;5.38;;;;;;;14.23;75.03;101397.75;7393117;19;20027;-61
2023/09/01 06:30:16;;;;;;;12.23;4.82;;;;;;;14.24;75.26;101391.50;7392098;19;20035;-61
2023/09/01 06:32:44;;;;;;;10.50;4.90;;;;;;;14.33;75.02;101394.25;7390938;19;20042;-61
2023/09/01 06:35:16;;;;;;;10.85;5.20;;;;;;;14.34;75.06;101392.44;7393772;19;20018;-61
2023/09/01 06:37:43;;;;;;;10.93;4.72;;;;;;;14.42;74.84;101399.81;7393203;19;20015;-61
2023/09/01 06:40:11;;;;;;;10.73;4.72;;;;;;;14.45;74.61;101403.09;7393213;19;20018;-60
2023/09/01 06:42:39;;;;;;;9.02;4.68;;;;;;;14.53;74.39;101408.69;7392104;19;20369;-60
2023/09/01 06:45:07;;;;;;;11.68;4.60;;;;;;;14.65;74.03;101412.19;7390959;19;20518;-61
2023/09/01 06:47:34;;;;;;;10.43;4.68;;;;;;;14.71;73.90;101417.03;7390791;19;20388;-60
2023/09/01 06:50:02;;;;;;;8.98;4.47;;;;;;;14.73;73.91;101409.78;7392029;19;20033;-61
2023/09/01 06:52:30;;;;;;;9.20;4.28;;;;;;;14.66;73.84;101410.41;7389899;19;20014;-64
2023/09/01 06:54:57;;;;;;;10.10;4.07;;;;;;;14.70;73.80;101411.84;7392706;19;20018;-62
2023/09/01 06:57:25;;;;;;;9.20;4.22;;;;;;;14.75;73.71;101413.16;7390568;19;20015;-61
2023/09/01 06:59:52;;;;;;;8.35;4.30;;;;;;;14.78;73.71;101414.72;7392129;19;20015;-62
2023/09/01 07:02:19;;;;;;;9.65;4.53;;;;;;;14.85;73.51;101410.59;7391531;19;20016;-61
2023/09/01 07:04:49;;;;;;;14.25;4.70;;;;;;;14.94;73.44;101401.00;7388947;19;20021;-62
2023/09/01 07:07:16;;;;;;;12.68;4.70;;;;;;;14.99;73.40;101410.28;7392690;19;20018;-62
2023/09/01 07:09:44;;;;;;;10.77;4.25;;;;;;;15.05;73.18;101409.81;7396685;19;20077;-62
2023/09/01 07:12:11;;;;;;;8.23;4.22;;;;;;;15.18;72.92;101414.97;7399304;19;20025;-64
2023/09/01 07:14:39;;;;;;;10.43;3.70;;;;;;;15.24;73.01;101416.31;7394658;19;20482;-63
2023/09/01 07:17:06;;;;;;;9.65;4.13;;;;;;;15.29;72.71;101420.25;7400283;19;20051;-61
2023/09/01 07:19:33;;;;;;;7.50;3.65;;;;;;;15.34;72.59;101423.44;7397626;19;20014;-61
2023/09/01 07:22:01;;;;;;;8.40;3.63;;;;;;;15.41;72.40;101420.22;7399207;19;20014;-61
2023/09/01 07:24:28;;;;;;;7.85;4.00;;;;;;;15.36;72.43;101415.28;7396532;19;20019;-61
2023/09/01 07:26:56;;;;;;;8.25;4.55;;;;;;;15.41;72.30;101415.72;7399147;19;20047;-61
2023/09/01 07:29:24;;;;;;;8.70;3.88;;;;;;;15.47;72.30;101415.22;7399597;19;20031;-61
2023/09/01 07:31:53;;;;;;;7.80;3.88;;;;;;;15.47;72.32;101409.88;7400321;19;20019;-62
2023/09/01 07:34:20;;;;;;;8.05;3.50;;;;;;;15.50;72.08;101409.63;7395595;19;20053;-62
2023/09/01 07:36:48;;;;;;;9.73;3.60;;;;;;;15.56;72.05;101411.78;7397872;19;20019;-62
2023/09/01 07:39:15;;;;;;;9.20;3.55;;;;;;;15.61;72.05;101400.72;7399362;19;20046;-62
2023/09/01 07:41:42;;;;;;;8.95;3.33;;;;;;;15.64;71.88;101410.28;7399191;19;20029;-62
2023/09/01 07:44:16;;;;;;;9.10;3.65;;;;;;;15.73;71.89;101412.22;7394791;19;20102;-62
2023/09/01 07:46:43;;;;;;;8.25;3.63;;;;;;;15.76;71.47;101411.97;7397143;19;20020;-61
2023/09/01 07:49:11;;;;;;;9.30;3.10;;;;;;;15.82;71.09;101412.28;7397746;19;20018;-62
2023/09/01 07:51:38;;;;;;;8.85;3.33;;;;;;;15.93;70.85;101414.03;7397561;19;20041;-60
2023/09/01 07:54:06;;;;;;;7.03;3.20;;;;;;;16.02;70.69;101407.88;7394732;19;20011;-61
2023/09/01 07:56:33;;;;;;;11.55;3.40;;;;;;;16.07;70.95;101416.38;7396591;19;20026;-61
2023/09/01 07:59:02;;;;;;;9.35;3.00;;;;;;;16.07;70.70;101415.53;7397724;19;20043;-60
2023/09/01 08:01:30;;;;;;;8.02;3.50;;;;;;;16.06;70.81;101409.34;7400161;19;20089;-60
2023/09/01 08:04:00;;;;;;;9.07;3.20;;;;;;;16.05;70.67;101402.28;7394236;19;20430;-61
2023/09/01 08:06:31;;;;;;;8.02;2.75;;;;;;;16.09;70.53;101409.03;7395291;19;20018;-61
2023/09/01 08:08:58;;;;;;;10.00;3.25;;;;;;;16.12;70.72;101396.41;7396015;19;20022;-61
2023/09/01 08:11:26;;;;;;;6.07;2.63;;;;;;;16.21;70.53;101411.63;7399610;19;20482;-61
2023/09/01 08:13:54;;;;;;;6.68;2.42;;;;;;;16.27;69.99;101411.97;7397539;19;20007;-61
2023/09/01 08:16:22;;;;;;;5.18;2.10;;;;;;;16.26;69.58;101412.94;7397103;19;20014;-61
2023/09/01 08:18:49;;;;;;;5.15;2.15;;;;;;;16.26;69.26;101412.09;7394300;19;20029;-62
2023/09/01 08:21:17;;;;;;;6.63;2.65;;;;;;;16.23;69.67;101415.03;7394273;19;20029;-61
2023/09/01 08:23:46;;;;;;;5.00;2.38;;;;;;;16.27;69.71;101419.13;7394880;19;20018;-60
2023/09/01 08:26:14;;;;;;;5.40;2.50;;;;;;;16.36;69.66;101412.13;7395568;19;20015;-61
2023/09/01 08:28:42;;;;;;;7.07;2.08;;;;;;;16.38;69.42;101412.84;7396473;19;20010;-60
2023/09/01 08:31:09;;;;;;;7.65;2.10;;;;;;;16.43;69.20;101411.44;7396270;19;20346;-61
2023/09/01 08:33:37;;;;;;;6.05;1.90;;;;;;;16.49;69.02;101418.94;7393106;19;20015;-60
2023/09/01 08:36:05;;;;;;;6.88;2.25;;;;;;;16.52;68.80;101420.47;7396517;19;20407;-60
2023/09/01 08:38:32;;;;;;;5.35;2.10;;;;;;;16.52;68.67;101418.69;7394038;19;20082;-61
2023/09/01 08:41:04;;;;;;;5.07;2.33;;;;;;;16.60;69.06;101414.47;7395807;19;20380;-60
2023/09/01 08:43:40;;;;;;;6.55;2.17;;;;;;;16.65;69.04;101418.44;7393353;19;20021;-61
2023/09/01 08:46:11;;;;;;;4.32;1.60;;;;;;;16.66;68.29;101413.94;7394229;19;20014;-62
2023/09/01 08:48:42;;;;;;;6.07;2.00;;;;;;;16.71;68.17;101417.91;7395631;19;20027;-60
2023/09/01 08:51:14;;;;;;;4.78;1.90;;;;;;;16.84;68.00;101412.31;7395140;19;20021;-62
2023/09/01 08:53:43;;;;;;;8.10;2.15;;;;;;;16.92;67.85;101411.63;7393381;19;20204;-60
2023/09/01 08:56:10;;;;;;;7.00;2.55;;;;;;;17.04;67.84;101419.38;7395123;19;20022;-60
2023/09/01 08:58:40;;;;;;;8.10;1.92;;;;;;;17.18;66.66;101414.63;7393275;19;20378;-60
2023/09/01 09:01:07;;;;;;;3.97;1.70;;;;;;;17.26;65.85;101423.66;7394901;19;20042;-62
2023/09/01 09:03:35;;;;;;;6.68;2.58;;;;;;;17.29;66.77;101420.69;7392574;19;20354;-61
2023/09/01 09:06:03;;;;;;;5.53;2.13;;;;;;;17.26;66.95;101423.66;7394868;19;20037;-61
2023/09/01 09:08:30;;;;;;;4.93;2.05;;;;;;;17.26;66.85;101414.78;7392674;19;20027;-60
2023/09/01 09:10:58;;;;;;;7.38;2.10;;;;;;;17.27;66.36;101416.44;7394841;19;20393;-60
2023/09/01 09:13:30;;;;;;;6.50;2.20;;;;;;;17.32;67.00;101411.50;7392290;19;20619;-60
2023/09/01 09:16:04;;;;;;;6.43;2.67;;;;;;;17.34;66.90;101406.88;7394159;19;20035;-60
2023/09/01 09:18:31;;;;;;;4.35;2.10;;;;;;;17.32;66.72;101413.34;7392968;19;20017;-61
2023/09/01 09:20:59;;;;;;;5.97;2.15;;;;;;;17.33;66.59;101417.75;7393335;19;20015;-61
2023/09/01 09:23:44;;;;;;;8.00;2.20;;;;;;;17.41;65.97;101425.91;7392284;19;20340;-61
2023/09/01 09:26:12;;;;;;;5.03;1.30;;;;;;;17.40;64.97;101422.38;7394142;19;20014;-61
2023/09/01 09:28:40;;;;;;;5.47;1.48;;;;;;;17.51;64.03;101424.06;7393824;19;20416;-60
2023/09/01 09:31:07;;;;;;;4.75;1.67;;;;;;;17.63;63.71;101430.97;7393148;19;20085;-60
2023/09/01 09:33:37;;;;;;;4.65;1.60;;;;;;;17.66;63.11;101429.81;7391388;19;20015;-62
2023/09/01 09:36:04;;;;;;;6.47;1.40;;;;;;;17.65;62.31;101426.31;7393536;19;20408;-60
2023/09/01 09:38:42;;;;;;;3.22;1.00;;;;;;;17.71;61.62;101425.75;7391735;19;20073;-62
2023/09/01 09:41:09;;;;;;;3.90;1.40;;;;;;;17.71;61.29;101427.59;7391973;19;20018;-61
2023/09/01 09:43:47;;;;;;;4.95;1.58;;;;;;;17.84;60.83;101421.94;7391939;19;20364;-60
2023/09/01 09:46:16;;;;;;;4.72;1.30;;;;;;;17.92;60.93;101430.94;7391715;19;20545;-60
2023/09/01 09:48:44;;;;;;;2.95;1.33;;;;;;;18.04;60.55;101431.63;7395430;19;20026;-60
2023/09/01 09:51:15;;;;;;;6.00;1.48;;;;;;;18.11;59.60;101434.56;7396625;19;20356;-60
2023/09/01 09:53:47;;;;;;;5.32;1.50;;;;;;;18.13;59.94;101441.50;7389718;19;20010;-60
2023/09/01 09:56:24;;;;;;;4.88;1.30;;;;;;;18.16;59.46;101434.97;7392785;19;20041;-60
2023/09/01 09:58:53;;;;;;;3.97;1.70;;;;;;;18.19;60.28;101432.84;7390981;19;20010;-60
2023/09/01 10:01:24;;;;;;;3.92;1.25;;;;;;;18.28;59.92;101439.19;7396192;19;20032;-60
2023/09/01 10:03:53;;;;;;;5.72;1.42;;;;;;;18.30;59.85;101434.50;7392933;19;20025;-62
2023/09/01 10:06:21;;;;;;;3.53;1.27;;;;;;;18.33;59.60;101438.75;7395213;19;20031;-62
2023/09/01 10:08:51;;;;;;;5.18;1.50;;;;;;;18.36;60.03;101431.25;7394824;19;20082;-61
2023/09/01 10:11:20;;;;;;;4.75;1.60;;;;;;;18.43;60.02;101444.91;7394619;19;20112;-61
2023/09/01 10:13:48;;;;;;;5.05;1.55;;;;;;;18.42;60.06;101449.41;7393098;19;20032;-59
2023/09/01 10:16:18;;;;;;;3.95;1.40;;;;;;;18.50;59.83;101444.16;7393004;19;20022;-61
2023/09/01 10:18:47;;;;;;;5.70;1.65;;;;;;;18.51;59.95;101437.81;7393249;19;20038;-60
2023/09/01 10:21:18;;;;;;;4.72;1.35;;;;;;;18.54;60.93;101441.19;7394761;19;20015;-61
2023/09/01 10:23:47;;;;;;;5.22;1.50;;;;;;;18.55;61.46;101451.78;7390881;19;20035;-60
2023/09/01 10:26:28;;;;;;;5.90;2.00;;;;;;;18.62;60.25;101449.34;7394328;19;20027;-61
2023/09/01 10:29:04;;;;;;;6.40;1.95;;;;;;;18.63;60.06;101453.75;7394552;19;20037;-61
2023/09/01 10:31:33;;;;;;;7.85;1.50;;;;;;;18.70;59.77;101450.34;7393660;19;20030;-60
2023/09/01 10:34:14;;;;;;;5.68;1.80;;;;;;;18.79;59.54;101453.97;7392505;19;20479;-62
2023/09/01 10:36:44;;;;;;;6.70;2.00;;;;;;;18.84;60.09;101456.19;7391675;19;20475;-62
2023/09/01 10:39:22;;;;;;;4.38;1.60;;;;;;;18.91;59.26;101455.44;7389870;19;20166;-60
2023/09/01 10:41:52;;;;;;;4.40;1.85;;;;;;;18.87;58.81;101461.25;7391305;19;20054;-60
2023/09/01 10:44:21;;;;;;;4.57;1.50;;;;;;;18.90;58.69;101458.28;7387908;19;20025;-60
2023/09/01 10:46:49;;;;;;;3.72;1.70;;;;;;;18.98;58.52;101461.06;7391111;19;20143;-59
2023/09/01 10:49:16;;;;;;;6.18;1.92;;;;;;;19.02;58.10;101462.44;7389746;19;20026;-59
2023/09/01 10:51:46;;;;;;;4.28;1.70;;;;;;;19.05;57.29;101469.38;7389635;19;20359;-61
2023/09/01 10:54:13;;;;;;;4.50;1.67;;;;;;;19.05;57.65;101467.53;7387673;19;20120;-59
2023/09/01 10:56:59;;;;;;;3.97;1.65;;;;;;;19.08;58.07;101472.59;7390881;19;20035;-60
2023/09/01 10:59:30;;;;;;;4.72;1.60;;;;;;;19.04;59.03;101473.03;7387825;19;20018;-60
2023/09/01 11:02:25;;;;;;;6.97;1.65;;;;;;;19.09;58.26;101473.44;7389972;19;20030;-60
2023/09/01 11:04:53;;;;;;;5.50;1.80;;;;;;;19.02;59.19;101473.19;7390843;19;20037;-61
2023/09/01 11:07:21;;;;;;;4.47;1.70;;;;;;;19.10;58.70;101480.47;7389862;19;20029;-63
2023/09/01 11:09:49;;;;;;;9.18;2.30;;;;;;;19.09;58.75;101476.97;7392058;19;20019;-62
2023/09/01 11:12:18;;;;;;;5.40;1.92;;;;;;;19.11;59.02;101477.63;7390381;19;20015;-62
2023/09/01 11:14:56;;;;;;;5.47;2.10;;;;;;;19.16;58.35;101475.38;7387500;19;20510;-60
2023/09/01 11:17:34;;;;;;;6.53;1.80;;;;;;;19.23;58.48;101470.22;7391033;19;20117;-61
2023/09/01 11:20:05;;;;;;;6.18;1.90;;;;;;;19.24;58.05;101467.38;7390695;19;20520;-61
2023/09/01 11:22:32;;;;;;;6.13;1.88;;;;;;;19.32;58.27;101469.31;7390197;19;20018;-60
2023/09/01 11:24:59;;;;;;;5.22;2.28;;;;;;;19.30;58.40;101467.75;7389890;19;20031;-60
2023/09/01 11:27:28;;;;;;;6.28;1.80;;;;;;;19.29;57.91;101471.47;7390576;19;20031;-62
2023/09/01 11:29:56;;;;;;;6.82;1.90;;;;;;;19.23;58.14;101460.34;7390003;19;20019;-61
2023/09/01 11:32:27;;;;;;;5.47;1.50;;;;;;;19.31;59.14;101459.56;7389614;19;20098;-61
2023/09/01 11:34:55;;;;;;;5.88;2.50;;;;;;;19.37;58.50;101466.16;7387519;19;20018;-60
2023/09/01 11:37:37;;;;;;;8.10;2.10;;;;;;;19.47;55.94;101465.09;7388278;19;20090;-60